sensor_id;sensor_type;location;lat;lon;timestamp;temperature;humidity
11221;DHT22;8517;53.546;10.104;2024-01-07T00:02:10;1.70;99.90
11221;DHT22;8517;53.546;10.104;2024-01-07T00:04:37;1.60;99.90
11221;DHT22;8517;53.546;10.104;2024-01-07T00:07:04;1.60;99.90
11221;DHT22;8517;53.546;10.104;2024-01-07T00:09:31;1.60;99.90
11221;DHT22;8517;53.546;10.104;2024-01-07T00:11:58;1.60;99.90
11221;DHT22;8517;53.546;10.104;2024-01-07T00:14:24;1.50;99.90
11221;DHT22;8517;53.546;10.104;2024-01-07T00:16:51;1.50;99.90
11221;DHT22;8517;53.546;10.104;2024-01-07T00:19:19;1.50;99.90
11221;DHT22;8517;53.546;10.104;2024-01-07T00:21:46;1.50;99.90
11221;DHT22;8517;53.546;10.104;2024-01-07T00:24:13;1.50;99.90
11221;DHT22;8517;53.546;10.104;2024-01-07T00:26:40;1.40;99.90
11221;DHT22;8517;53.546;10.104;2024-01-07T00:29:06;1.40;99.90
11221;DHT22;8517;53.546;10.104;2024-01-07T00:31:33;1.40;99.90
11221;DHT22;8517;53.546;10.104;2024-01-07T00:34:00;1.40;99.90
11221;DHT22;8517;53.546;10.104;2024-01-07T00:36:28;1.30;99.90
11221;DHT22;8517;53.546;10.104;2024-01-07T00:38:55;1.30;99.90
11221;DHT22;8517;53.546;10.104;2024-01-07T00:41:22;1.30;99.90
11221;DHT22;8517;53.546;10.104;2024-01-07T00:43:50;1.30;99.90
11221;DHT22;8517;53.546;10.104;2024-01-07T00:46:16;1.30;99.90
11221;DHT22;8517;53.546;10.104;2024-01-07T00:48:43;1.30;99.90
11221;DHT22;8517;53.546;10.104;2024-01-07T00:51:10;1.30;99.90
11221;DHT22;8517;53.546;10.104;2024-01-07T00:53:38;1.30;99.90
11221;DHT22;8517;53.546;10.104;2024-01-07T00:56:06;1.20;99.90
11221;DHT22;8517;53.546;10.104;2024-01-07T00:58:33;1.20;99.90
11221;DHT22;8517;53.546;10.104;2024-01-07T01:00:59;1.30;99.90
11221;DHT22;8517;53.546;10.104;2024-01-07T01:03:26;1.20;99.90
11221;DHT22;8517;53.546;10.104;2024-01-07T01:05:53;1.20;99.90
11221;DHT22;8517;53.546;10.104;2024-01-07T01:08:20;1.20;99.90
11221;DHT22;8517;53.546;10.104;2024-01-07T01:10:48;1.20;99.90
11221;DHT22;8517;53.546;10.104;2024-01-07T01:13:15;1.20;99.90
11221;DHT22;8517;53.546;10.104;2024-01-07T01:15:42;1.10;99.90
11221;DHT22;8517;53.546;10.104;2024-01-07T01:18:08;1.10;99.90
11221;DHT22;8517;53.546;10.104;2024-01-07T01:20:35;1.10;99.90
11221;DHT22;8517;53.546;10.104;2024-01-07T01:23:02;1.10;99.90
11221;DHT22;8517;53.546;10.104;2024-01-07T01:25:29;1.10;99.90
11221;DHT22;8517;53.546;10.104;2024-01-07T01:27:57;1.10;99.90
11221;DHT22;8517;53.546;10.104;2024-01-07T01:30:24;1.00;99.90
11221;DHT22;8517;53.546;10.104;2024-01-07T01:32:51;1.00;99.90
11221;DHT22;8517;53.546;10.104;2024-01-07T01:35:19;1.10;99.90
11221;DHT22;8517;53.546;10.104;2024-01-07T01:37:46;1.00;99.90
11221;DHT22;8517;53.546;10.104;2024-01-07T01:40:13;1.00;99.90
11221;DHT22;8517;53.546;10.104;2024-01-07T01:42:43;1.00;99.90
11221;DHT22;8517;53.546;10.104;2024-01-07T01:45:11;1.00;99.90
11221;DHT22;8517;53.546;10.104;2024-01-07T01:47:38;1.00;99.90
11221;DHT22;8517;53.546;10.104;2024-01-07T01:50:06;1.00;99.90
11221;DHT22;8517;53.546;10.104;2024-01-07T01:52:34;1.00;99.90
11221;DHT22;8517;53.546;10.104;2024-01-07T01:55:01;0.90;99.90
11221;DHT22;8517;53.546;10.104;2024-01-07T01:57:32;0.90;99.90
11221;DHT22;8517;53.546;10.104;2024-01-07T02:00:00;0.90;99.90
11221;DHT22;8517;53.546;10.104;2024-01-07T02:02:30;0.90;99.90
11221;DHT22;8517;53.546;10.104;2024-01-07T02:04:59;0.90;99.90
11221;DHT22;8517;53.546;10.104;2024-01-07T02:07:27;0.90;99.90
11221;DHT22;8517;53.546;10.104;2024-01-07T02:09:54;0.90;99.90
11221;DHT22;8517;53.546;10.104;2024-01-07T02:12:21;0.90;99.90
11221;DHT22;8517;53.546;10.104;2024-01-07T02:14:48;1.00;99.90
11221;DHT22;8517;53.546;10.104;2024-01-07T02:17:15;1.00;99.90
11221;DHT22;8517;53.546;10.104;2024-01-07T02:19:43;1.00;99.90
11221;DHT22;8517;53.546;10.104;2024-01-07T02:22:11;1.00;99.90
11221;DHT22;8517;53.546;10.104;2024-01-07T02:24:40;1.00;99.90
11221;DHT22;8517;53.546;10.104;2024-01-07T02:27:37;1.00;99.90
11221;DHT22;8517;53.546;10.104;2024-01-07T02:30:04;1.10;99.90
11221;DHT22;8517;53.546;10.104;2024-01-07T02:32:31;1.10;99.90
11221;DHT22;8517;53.546;10.104;2024-01-07T02:35:00;1.10;99.90
11221;DHT22;8517;53.546;10.104;2024-01-07T02:37:27;1.10;99.90
11221;DHT22;8517;53.546;10.104;2024-01-07T02:39:55;1.10;99.90
11221;DHT22;8517;53.546;10.104;2024-01-07T02:42:22;1.10;99.90
11221;DHT22;8517;53.546;10.104;2024-01-07T02:44:51;1.20;99.90
11221;DHT22;8517;53.546;10.104;2024-01-07T02:47:18;1.20;99.90
11221;DHT22;8517;53.546;10.104;2024-01-07T02:49:45;1.20;99.90
11221;DHT22;8517;53.546;10.104;2024-01-07T02:52:11;1.30;99.90
11221;DHT22;8517;53.546;10.104;2024-01-07T02:54:38;1.30;99.90
11221;DHT22;8517;53.546;10.104;2024-01-07T02:57:06;1.30;99.90
11221;DHT22;8517;53.546;10.104;2024-01-07T02:59:33;1.30;99.90
11221;DHT22;8517;53.546;10.104;2024-01-07T03:02:00;1.30;99.90
11221;DHT22;8517;53.546;10.104;2024-01-07T03:04:26;1.40;99.90
11221;DHT22;8517;53.546;10.104;2024-01-07T03:06:53;1.40;99.90
11221;DHT22;8517;53.546;10.104;2024-01-07T03:09:20;1.40;99.90
11221;DHT22;8517;53.546;10.104;2024-01-07T03:11:47;1.40;99.90
11221;DHT22;8517;53.546;10.104;2024-01-07T03:14:15;1.40;99.90
11221;DHT22;8517;53.546;10.104;2024-01-07T03:16:45;1.50;99.90
11221;DHT22;8517;53.546;10.104;2024-01-07T03:19:12;1.50;99.90
11221;DHT22;8517;53.546;10.104;2024-01-07T03:21:39;1.50;99.90
11221;DHT22;8517;53.546;10.104;2024-01-07T03:24:06;1.50;99.90
11221;DHT22;8517;53.546;10.104;2024-01-07T03:26:33;1.50;99.90
11221;DHT22;8517;53.546;10.104;2024-01-07T03:29:00;1.50;99.90
11221;DHT22;8517;53.546;10.104;2024-01-07T03:31:29;1.50;99.90
11221;DHT22;8517;53.546;10.104;2024-01-07T03:33:55;1.50;99.90
11221;DHT22;8517;53.546;10.104;2024-01-07T03:36:22;1.60;99.90
11221;DHT22;8517;53.546;10.104;2024-01-07T03:38:49;1.60;99.90
11221;DHT22;8517;53.546;10.104;2024-01-07T03:41:16;1.60;99.90
11221;DHT22;8517;53.546;10.104;2024-01-07T03:43:44;1.60;99.90
11221;DHT22;8517;53.546;10.104;2024-01-07T03:46:11;1.60;99.90
11221;DHT22;8517;53.546;10.104;2024-01-07T03:48:39;1.60;99.90
11221;DHT22;8517;53.546;10.104;2024-01-07T03:51:06;1.60;99.90
11221;DHT22;8517;53.546;10.104;2024-01-07T03:53:33;1.70;99.90
11221;DHT22;8517;53.546;10.104;2024-01-07T03:56:00;1.70;99.90
11221;DHT22;8517;53.546;10.104;2024-01-07T03:58:27;1.70;99.90
11221;DHT22;8517;53.546;10.104;2024-01-07T04:00:53;1.70;99.90
11221;DHT22;8517;53.546;10.104;2024-01-07T04:03:20;1.80;99.90
11221;DHT22;8517;53.546;10.104;2024-01-07T04:05:48;1.80;99.90
11221;DHT22;8517;53.546;10.104;2024-01-07T04:08:15;1.80;99.90
11221;DHT22;8517;53.546;10.104;2024-01-07T04:10:42;1.80;99.90
11221;DHT22;8517;53.546;10.104;2024-01-07T04:13:09;1.80;99.90
11221;DHT22;8517;53.546;10.104;2024-01-07T04:15:35;1.80;99.90
11221;DHT22;8517;53.546;10.104;2024-01-07T04:18:03;1.80;99.90
11221;DHT22;8517;53.546;10.104;2024-01-07T04:20:30;1.90;99.90
11221;DHT22;8517;53.546;10.104;2024-01-07T04:22:58;1.90;99.90
11221;DHT22;8517;53.546;10.104;2024-01-07T04:25:25;1.90;99.90
11221;DHT22;8517;53.546;10.104;2024-01-07T04:27:52;1.90;99.90
11221;DHT22;8517;53.546;10.104;2024-01-07T04:30:19;2.00;99.90
11221;DHT22;8517;53.546;10.104;2024-01-07T04:32:45;2.00;99.90
11221;DHT22;8517;53.546;10.104;2024-01-07T04:35:12;2.00;99.90
11221;DHT22;8517;53.546;10.104;2024-01-07T04:37:39;2.00;99.90
11221;DHT22;8517;53.546;10.104;2024-01-07T04:40:08;2.00;99.90
11221;DHT22;8517;53.546;10.104;2024-01-07T04:42:35;2.00;99.90
11221;DHT22;8517;53.546;10.104;2024-01-07T04:45:02;2.00;99.90
11221;DHT22;8517;53.546;10.104;2024-01-07T04:47:30;2.10;99.90
11221;DHT22;8517;53.546;10.104;2024-01-07T04:49:59;2.10;99.90
11221;DHT22;8517;53.546;10.104;2024-01-07T04:52:26;2.10;99.90
11221;DHT22;8517;53.546;10.104;2024-01-07T04:54:53;2.10;99.90
11221;DHT22;8517;53.546;10.104;2024-01-07T04:57:22;2.10;99.90
11221;DHT22;8517;53.546;10.104;2024-01-07T04:59:50;2.00;99.90
11221;DHT22;8517;53.546;10.104;2024-01-07T05:02:16;2.10;99.90
11221;DHT22;8517;53.546;10.104;2024-01-07T05:04:43;2.10;99.90
11221;DHT22;8517;53.546;10.104;2024-01-07T05:07:10;2.10;99.90
11221;DHT22;8517;53.546;10.104;2024-01-07T05:09:37;2.10;99.90
11221;DHT22;8517;53.546;10.104;2024-01-07T05:12:04;2.20;99.90
11221;DHT22;8517;53.546;10.104;2024-01-07T05:14:32;2.20;99.90
11221;DHT22;8517;53.546;10.104;2024-01-07T05:16:59;2.20;99.90
11221;DHT22;8517;53.546;10.104;2024-01-07T05:19:26;2.30;99.90
11221;DHT22;8517;53.546;10.104;2024-01-07T05:21:53;2.30;99.90
11221;DHT22;8517;53.546;10.104;2024-01-07T05:24:20;2.30;99.90
11221;DHT22;8517;53.546;10.104;2024-01-07T05:26:47;2.30;99.90
11221;DHT22;8517;53.546;10.104;2024-01-07T05:29:13;2.30;99.90
11221;DHT22;8517;53.546;10.104;2024-01-07T05:31:42;2.30;99.90
11221;DHT22;8517;53.546;10.104;2024-01-07T05:34:08;2.30;99.90
11221;DHT22;8517;53.546;10.104;2024-01-07T05:36:35;2.30;99.90
11221;DHT22;8517;53.546;10.104;2024-01-07T05:39:03;2.30;99.90
11221;DHT22;8517;53.546;10.104;2024-01-07T05:41:30;2.30;99.90
11221;DHT22;8517;53.546;10.104;2024-01-07T05:43:56;2.30;99.90
11221;DHT22;8517;53.546;10.104;2024-01-07T05:46:23;2.40;99.90
11221;DHT22;8517;53.546;10.104;2024-01-07T05:48:51;2.40;99.90
11221;DHT22;8517;53.546;10.104;2024-01-07T05:51:18;2.40;99.90
11221;DHT22;8517;53.546;10.104;2024-01-07T05:53:45;2.40;99.90
11221;DHT22;8517;53.546;10.104;2024-01-07T05:56:12;2.40;99.90
11221;DHT22;8517;53.546;10.104;2024-01-07T05:58:39;2.40;99.90
11221;DHT22;8517;53.546;10.104;2024-01-07T06:01:07;2.40;99.90
11221;DHT22;8517;53.546;10.104;2024-01-07T06:03:34;2.40;99.90
11221;DHT22;8517;53.546;10.104;2024-01-07T06:06:02;2.40;99.90
11221;DHT22;8517;53.546;10.104;2024-01-07T06:08:29;2.50;99.90
11221;DHT22;8517;53.546;10.104;2024-01-07T06:10:56;2.40;99.90
11221;DHT22;8517;53.546;10.104;2024-01-07T06:13:23;2.50;99.90
11221;DHT22;8517;53.546;10.104;2024-01-07T06:15:50;2.50;99.90
11221;DHT22;8517;53.546;10.104;2024-01-07T06:18:17;2.50;99.90
11221;DHT22;8517;53.546;10.104;2024-01-07T06:20:43;2.50;99.90
11221;DHT22;8517;53.546;10.104;2024-01-07T06:23:12;2.50;99.90
11221;DHT22;8517;53.546;10.104;2024-01-07T06:25:38;2.50;99.90
11221;DHT22;8517;53.546;10.104;2024-01-07T06:28:06;2.50;99.90
11221;DHT22;8517;53.546;10.104;2024-01-07T06:30:32;2.50;99.90
11221;DHT22;8517;53.546;10.104;2024-01-07T06:33:00;2.50;99.90
11221;DHT22;8517;53.546;10.104;2024-01-07T06:35:27;2.50;99.90
11221;DHT22;8517;53.546;10.104;2024-01-07T06:37:54;2.50;99.90
11221;DHT22;8517;53.546;10.104;2024-01-07T06:40:22;2.50;99.90
11221;DHT22;8517;53.546;10.104;2024-01-07T06:42:49;2.50;99.90
11221;DHT22;8517;53.546;10.104;2024-01-07T06:45:16;2.50;99.90
11221;DHT22;8517;53.546;10.104;2024-01-07T06:47:43;2.50;99.90
11221;DHT22;8517;53.546;10.104;2024-01-07T06:50:11;2.50;99.90
11221;DHT22;8517;53.546;10.104;2024-01-07T06:52:38;2.60;99.90
11221;DHT22;8517;53.546;10.104;2024-01-07T06:55:07;2.60;99.90
11221;DHT22;8517;53.546;10.104;2024-01-07T06:57:35;2.60;99.90
11221;DHT22;8517;53.546;10.104;2024-01-07T07:00:01;2.60;99.90
11221;DHT22;8517;53.546;10.104;2024-01-07T07:02:30;2.60;99.90
11221;DHT22;8517;53.546;10.104;2024-01-07T07:04:56;2.60;99.90
11221;DHT22;8517;53.546;10.104;2024-01-07T07:07:23;2.60;99.90
11221;DHT22;8517;53.546;10.104;2024-01-07T07:09:50;2.60;99.90
11221;DHT22;8517;53.546;10.104;2024-01-07T07:12:17;2.60;99.90
11221;DHT22;8517;53.546;10.104;2024-01-07T07:14:46;2.60;99.90
11221;DHT22;8517;53.546;10.104;2024-01-07T07:17:13;2.60;99.90
11221;DHT22;8517;53.546;10.104;2024-01-07T07:19:40;2.60;99.90
11221;DHT22;8517;53.546;10.104;2024-01-07T07:22:07;2.70;99.90
11221;DHT22;8517;53.546;10.104;2024-01-07T07:24:33;2.70;99.90
11221;DHT22;8517;53.546;10.104;2024-01-07T07:27:00;2.60;99.90
11221;DHT22;8517;53.546;10.104;2024-01-07T07:29:27;2.70;99.90
11221;DHT22;8517;53.546;10.104;2024-01-07T07:31:55;2.60;99.90
11221;DHT22;8517;53.546;10.104;2024-01-07T07:34:22;2.60;99.90
11221;DHT22;8517;53.546;10.104;2024-01-07T07:36:49;2.60;99.90
11221;DHT22;8517;53.546;10.104;2024-01-07T07:39:19;2.60;99.90
11221;DHT22;8517;53.546;10.104;2024-01-07T07:41:46;2.60;99.90
11221;DHT22;8517;53.546;10.104;2024-01-07T07:44:13;2.60;99.90
11221;DHT22;8517;53.546;10.104;2024-01-07T07:46:40;2.60;99.90
11221;DHT22;8517;53.546;10.104;2024-01-07T07:49:09;2.60;99.90
11221;DHT22;8517;53.546;10.104;2024-01-07T07:51:36;2.60;99.90
11221;DHT22;8517;53.546;10.104;2024-01-07T07:54:03;2.60;99.90
11221;DHT22;8517;53.546;10.104;2024-01-07T07:56:30;2.50;99.90
11221;DHT22;8517;53.546;10.104;2024-01-07T07:58:57;2.50;99.90
11221;DHT22;8517;53.546;10.104;2024-01-07T08:01:24;2.50;99.90
11221;DHT22;8517;53.546;10.104;2024-01-07T08:03:51;2.50;99.90
11221;DHT22;8517;53.546;10.104;2024-01-07T08:06:19;2.50;99.90
11221;DHT22;8517;53.546;10.104;2024-01-07T08:08:46;2.50;99.90
11221;DHT22;8517;53.546;10.104;2024-01-07T08:11:12;2.40;99.90
11221;DHT22;8517;53.546;10.104;2024-01-07T08:13:39;2.40;99.90
11221;DHT22;8517;53.546;10.104;2024-01-07T08:16:06;2.40;99.90
11221;DHT22;8517;53.546;10.104;2024-01-07T08:18:35;2.30;99.90
11221;DHT22;8517;53.546;10.104;2024-01-07T08:21:02;2.30;99.90
11221;DHT22;8517;53.546;10.104;2024-01-07T08:23:31;2.30;99.90
11221;DHT22;8517;53.546;10.104;2024-01-07T08:25:58;2.30;99.90
11221;DHT22;8517;53.546;10.104;2024-01-07T08:28:25;2.30;99.90
11221;DHT22;8517;53.546;10.104;2024-01-07T08:30:51;2.30;99.90
11221;DHT22;8517;53.546;10.104;2024-01-07T08:33:19;2.30;99.90
11221;DHT22;8517;53.546;10.104;2024-01-07T08:35:46;2.40;99.90
11221;DHT22;8517;53.546;10.104;2024-01-07T08:38:12;2.40;99.90
11221;DHT22;8517;53.546;10.104;2024-01-07T08:40:41;2.40;99.90
11221;DHT22;8517;53.546;10.104;2024-01-07T08:43:08;2.50;99.90
11221;DHT22;8517;53.546;10.104;2024-01-07T08:45:34;2.50;99.90
11221;DHT22;8517;53.546;10.104;2024-01-07T08:48:01;2.50;99.90
11221;DHT22;8517;53.546;10.104;2024-01-07T08:50:28;2.60;99.90
11221;DHT22;8517;53.546;10.104;2024-01-07T08:52:55;2.60;99.90
11221;DHT22;8517;53.546;10.104;2024-01-07T08:55:22;2.60;99.90
11221;DHT22;8517;53.546;10.104;2024-01-07T08:57:50;2.60;99.90
11221;DHT22;8517;53.546;10.104;2024-01-07T09:00:18;2.70;99.90
11221;DHT22;8517;53.546;10.104;2024-01-07T09:02:45;2.70;99.90
11221;DHT22;8517;53.546;10.104;2024-01-07T09:05:12;2.70;99.90
11221;DHT22;8517;53.546;10.104;2024-01-07T09:07:39;2.70;99.90
11221;DHT22;8517;53.546;10.104;2024-01-07T09:10:06;2.70;99.90
11221;DHT22;8517;53.546;10.104;2024-01-07T09:12:36;2.70;99.90
11221;DHT22;8517;53.546;10.104;2024-01-07T09:15:05;2.80;99.90
11221;DHT22;8517;53.546;10.104;2024-01-07T09:17:34;2.70;99.90
11221;DHT22;8517;53.546;10.104;2024-01-07T09:20:01;2.80;99.90
11221;DHT22;8517;53.546;10.104;2024-01-07T09:22:30;2.80;99.90
11221;DHT22;8517;53.546;10.104;2024-01-07T09:24:57;2.80;99.90
11221;DHT22;8517;53.546;10.104;2024-01-07T09:27:23;3.00;99.90
11221;DHT22;8517;53.546;10.104;2024-01-07T09:29:50;3.10;99.90
11221;DHT22;8517;53.546;10.104;2024-01-07T09:32:30;3.20;99.90
11221;DHT22;8517;53.546;10.104;2024-01-07T09:34:57;3.30;99.90
11221;DHT22;8517;53.546;10.104;2024-01-07T09:37:24;3.40;99.90
11221;DHT22;8517;53.546;10.104;2024-01-07T09:39:51;3.60;99.90
11221;DHT22;8517;53.546;10.104;2024-01-07T09:42:18;3.70;99.90
11221;DHT22;8517;53.546;10.104;2024-01-07T09:44:45;3.90;99.90
11221;DHT22;8517;53.546;10.104;2024-01-07T09:47:13;4.10;99.90
11221;DHT22;8517;53.546;10.104;2024-01-07T09:49:43;4.20;99.90
11221;DHT22;8517;53.546;10.104;2024-01-07T09:52:10;4.30;99.90
11221;DHT22;8517;53.546;10.104;2024-01-07T09:54:38;4.50;99.90
11221;DHT22;8517;53.546;10.104;2024-01-07T09:57:07;4.70;99.90
11221;DHT22;8517;53.546;10.104;2024-01-07T09:59:34;5.00;99.90
11221;DHT22;8517;53.546;10.104;2024-01-07T10:02:28;5.30;99.90
11221;DHT22;8517;53.546;10.104;2024-01-07T10:05:11;5.60;99.90
11221;DHT22;8517;53.546;10.104;2024-01-07T10:07:39;5.90;99.90
11221;DHT22;8517;53.546;10.104;2024-01-07T10:13:31;6.00;99.90
11221;DHT22;8517;53.546;10.104;2024-01-07T10:15:58;5.80;99.90
11221;DHT22;8517;53.546;10.104;2024-01-07T10:18:28;5.60;99.90
11221;DHT22;8517;53.546;10.104;2024-01-07T10:21:03;5.40;99.90
11221;DHT22;8517;53.546;10.104;2024-01-07T10:23:30;5.10;99.90
11221;DHT22;8517;53.546;10.104;2024-01-07T10:29:29;4.80;99.90
11221;DHT22;8517;53.546;10.104;2024-01-07T10:31:57;4.50;99.90
11221;DHT22;8517;53.546;10.104;2024-01-07T10:34:32;4.40;99.90
11221;DHT22;8517;53.546;10.104;2024-01-07T10:37:01;4.30;99.90
11221;DHT22;8517;53.546;10.104;2024-01-07T10:39:29;4.20;99.90
11221;DHT22;8517;53.546;10.104;2024-01-07T10:48:04;4.20;99.90
11221;DHT22;8517;53.546;10.104;2024-01-07T10:50:34;4.30;99.90
11221;DHT22;8517;53.546;10.104;2024-01-07T10:53:04;4.30;99.90
11221;DHT22;8517;53.546;10.104;2024-01-07T10:55:54;4.30;99.90
11221;DHT22;8517;53.546;10.104;2024-01-07T10:58:24;4.30;99.90
11221;DHT22;8517;53.546;10.104;2024-01-07T11:04:04;4.30;99.90
11221;DHT22;8517;53.546;10.104;2024-01-07T11:06:38;4.30;99.90
11221;DHT22;8517;53.546;10.104;2024-01-07T11:09:26;4.30;99.90
11221;DHT22;8517;53.546;10.104;2024-01-07T11:11:59;4.30;99.90
11221;DHT22;8517;53.546;10.104;2024-01-07T11:14:39;4.20;99.90
11221;DHT22;8517;53.546;10.104;2024-01-07T11:17:13;4.10;99.90
11221;DHT22;8517;53.546;10.104;2024-01-07T11:20:25;4.00;99.90
11221;DHT22;8517;53.546;10.104;2024-01-07T11:23:28;3.90;99.90
11221;DHT22;8517;53.546;10.104;2024-01-07T11:25:58;3.80;99.90
11221;DHT22;8517;53.546;10.104;2024-01-07T11:28:46;3.70;99.90
11221;DHT22;8517;53.546;10.104;2024-01-07T11:31:13;3.60;99.90
11221;DHT22;8517;53.546;10.104;2024-01-07T11:34:07;3.60;99.90
11221;DHT22;8517;53.546;10.104;2024-01-07T11:36:43;3.60;99.90
11221;DHT22;8517;53.546;10.104;2024-01-07T11:39:10;3.50;99.90
11221;DHT22;8517;53.546;10.104;2024-01-07T11:41:41;3.50;99.90
11221;DHT22;8517;53.546;10.104;2024-01-07T11:44:19;3.40;99.90
11221;DHT22;8517;53.546;10.104;2024-01-07T11:46:48;3.40;99.90
11221;DHT22;8517;53.546;10.104;2024-01-07T11:49:15;3.40;99.90
11221;DHT22;8517;53.546;10.104;2024-01-07T11:51:43;3.40;99.90
11221;DHT22;8517;53.546;10.104;2024-01-07T11:54:11;3.40;99.90
11221;DHT22;8517;53.546;10.104;2024-01-07T11:56:45;3.40;99.90
11221;DHT22;8517;53.546;10.104;2024-01-07T11:59:12;3.40;99.90
11221;DHT22;8517;53.546;10.104;2024-01-07T12:01:39;3.40;99.90
11221;DHT22;8517;53.546;10.104;2024-01-07T12:07:35;3.30;99.90
11221;DHT22;8517;53.546;10.104;2024-01-07T12:10:15;3.30;99.90
11221;DHT22;8517;53.546;10.104;2024-01-07T12:12:46;3.30;99.90
11221;DHT22;8517;53.546;10.104;2024-01-07T12:18:50;3.20;99.90
11221;DHT22;8517;53.546;10.104;2024-01-07T12:21:28;3.20;99.90
11221;DHT22;8517;53.546;10.104;2024-01-07T12:24:20;3.20;99.90
11221;DHT22;8517;53.546;10.104;2024-01-07T12:26:51;3.20;99.90
11221;DHT22;8517;53.546;10.104;2024-01-07T12:29:19;3.20;99.90
11221;DHT22;8517;53.546;10.104;2024-01-07T12:31:51;3.20;99.90
11221;DHT22;8517;53.546;10.104;2024-01-07T12:34:18;3.20;99.90
11221;DHT22;8517;53.546;10.104;2024-01-07T12:36:49;3.30;99.90
11221;DHT22;8517;53.546;10.104;2024-01-07T12:39:18;3.30;99.90
11221;DHT22;8517;53.546;10.104;2024-01-07T12:41:49;3.40;99.90
11221;DHT22;8517;53.546;10.104;2024-01-07T12:44:16;3.50;99.90
11221;DHT22;8517;53.546;10.104;2024-01-07T12:46:44;3.60;99.90
11221;DHT22;8517;53.546;10.104;2024-01-07T12:49:13;3.70;99.90
11221;DHT22;8517;53.546;10.104;2024-01-07T12:52:00;3.70;99.90
11221;DHT22;8517;53.546;10.104;2024-01-07T12:54:44;3.80;99.90
11221;DHT22;8517;53.546;10.104;2024-01-07T12:57:17;3.80;99.90
11221;DHT22;8517;53.546;10.104;2024-01-07T12:59:44;3.80;99.90
11221;DHT22;8517;53.546;10.104;2024-01-07T13:02:12;3.90;99.90
11221;DHT22;8517;53.546;10.104;2024-01-07T13:04:39;4.00;99.90
11221;DHT22;8517;53.546;10.104;2024-01-07T13:07:06;4.10;99.90
11221;DHT22;8517;53.546;10.104;2024-01-07T13:09:38;4.10;99.90
11221;DHT22;8517;53.546;10.104;2024-01-07T13:12:10;4.10;99.90
11221;DHT22;8517;53.546;10.104;2024-01-07T13:14:37;4.00;99.90
11221;DHT22;8517;53.546;10.104;2024-01-07T13:17:05;4.00;99.90
11221;DHT22;8517;53.546;10.104;2024-01-07T13:19:36;4.10;99.90
11221;DHT22;8517;53.546;10.104;2024-01-07T13:22:06;4.20;99.90
11221;DHT22;8517;53.546;10.104;2024-01-07T13:24:39;4.10;99.90
11221;DHT22;8517;53.546;10.104;2024-01-07T13:27:46;4.00;99.90
11221;DHT22;8517;53.546;10.104;2024-01-07T13:30:28;4.00;99.90
11221;DHT22;8517;53.546;10.104;2024-01-07T13:32:54;4.00;99.90
11221;DHT22;8517;53.546;10.104;2024-01-07T13:35:26;4.00;99.90
11221;DHT22;8517;53.546;10.104;2024-01-07T13:37:57;4.20;99.90
11221;DHT22;8517;53.546;10.104;2024-01-07T13:40:25;4.50;99.90
11221;DHT22;8517;53.546;10.104;2024-01-07T13:43:04;4.70;99.90
11221;DHT22;8517;53.546;10.104;2024-01-07T13:45:55;4.70;99.90
11221;DHT22;8517;53.546;10.104;2024-01-07T13:48:30;4.50;99.90
11221;DHT22;8517;53.546;10.104;2024-01-07T13:50:58;4.50;99.90
11221;DHT22;8517;53.546;10.104;2024-01-07T13:53:25;4.60;99.90
11221;DHT22;8517;53.546;10.104;2024-01-07T13:55:52;4.80;99.90
11221;DHT22;8517;53.546;10.104;2024-01-07T13:58:19;4.80;99.90
11221;DHT22;8517;53.546;10.104;2024-01-07T14:00:47;5.00;99.90
11221;DHT22;8517;53.546;10.104;2024-01-07T14:03:13;5.00;99.90
11221;DHT22;8517;53.546;10.104;2024-01-07T14:05:49;4.90;99.90
11221;DHT22;8517;53.546;10.104;2024-01-07T14:08:38;4.70;99.90
11221;DHT22;8517;53.546;10.104;2024-01-07T14:11:13;4.50;99.90
11221;DHT22;8517;53.546;10.104;2024-01-07T14:13:46;4.30;99.90
11221;DHT22;8517;53.546;10.104;2024-01-07T14:16:13;4.00;99.90
11221;DHT22;8517;53.546;10.104;2024-01-07T14:18:46;3.70;99.90
11221;DHT22;8517;53.546;10.104;2024-01-07T14:21:33;3.50;99.90
11221;DHT22;8517;53.546;10.104;2024-01-07T14:24:21;3.20;99.90
11221;DHT22;8517;53.546;10.104;2024-01-07T14:29:43;3.00;99.90
11221;DHT22;8517;53.546;10.104;2024-01-07T14:30:16;2.70;99.90
11221;DHT22;8517;53.546;10.104;2024-01-07T14:32:53;2.50;99.90
11221;DHT22;8517;53.546;10.104;2024-01-07T14:38:55;2.20;99.90
11221;DHT22;8517;53.546;10.104;2024-01-07T14:41:28;1.90;99.90
11221;DHT22;8517;53.546;10.104;2024-01-07T14:44:03;1.80;99.90
11221;DHT22;8517;53.546;10.104;2024-01-07T14:46:31;1.70;99.90
11221;DHT22;8517;53.546;10.104;2024-01-07T14:48:58;1.60;99.90
11221;DHT22;8517;53.546;10.104;2024-01-07T14:51:27;1.50;99.90
11221;DHT22;8517;53.546;10.104;2024-01-07T14:53:54;1.50;99.90
11221;DHT22;8517;53.546;10.104;2024-01-07T14:56:26;1.40;99.90
11221;DHT22;8517;53.546;10.104;2024-01-07T14:58:55;1.30;99.90
11221;DHT22;8517;53.546;10.104;2024-01-07T15:01:26;1.30;99.90
11221;DHT22;8517;53.546;10.104;2024-01-07T15:03:59;1.20;99.90
11221;DHT22;8517;53.546;10.104;2024-01-07T15:06:26;1.10;99.90
11221;DHT22;8517;53.546;10.104;2024-01-07T15:08:55;1.10;99.90
11221;DHT22;8517;53.546;10.104;2024-01-07T15:11:22;1.00;99.90
11221;DHT22;8517;53.546;10.104;2024-01-07T15:13:51;0.90;99.90
11221;DHT22;8517;53.546;10.104;2024-01-07T15:16:18;0.90;99.90
11221;DHT22;8517;53.546;10.104;2024-01-07T15:18:45;0.80;99.90
11221;DHT22;8517;53.546;10.104;2024-01-07T15:21:12;0.80;99.90
11221;DHT22;8517;53.546;10.104;2024-01-07T15:23:39;0.70;99.90
11221;DHT22;8517;53.546;10.104;2024-01-07T15:26:06;0.70;99.90
11221;DHT22;8517;53.546;10.104;2024-01-07T15:28:34;0.60;99.90
11221;DHT22;8517;53.546;10.104;2024-01-07T15:31:02;0.60;99.90
11221;DHT22;8517;53.546;10.104;2024-01-07T15:33:29;0.60;99.90
11221;DHT22;8517;53.546;10.104;2024-01-07T15:36:02;0.50;99.90
11221;DHT22;8517;53.546;10.104;2024-01-07T15:38:29;0.50;99.90
11221;DHT22;8517;53.546;10.104;2024-01-07T15:40:56;0.40;99.90
11221;DHT22;8517;53.546;10.104;2024-01-07T15:43:24;0.40;99.90
11221;DHT22;8517;53.546;10.104;2024-01-07T15:48:56;0.30;99.90
11221;DHT22;8517;53.546;10.104;2024-01-07T15:52:12;0.40;99.90
11221;DHT22;8517;53.546;10.104;2024-01-07T15:54:45;0.30;99.90
11221;DHT22;8517;53.546;10.104;2024-01-07T15:57:17;0.30;99.90
11221;DHT22;8517;53.546;10.104;2024-01-07T15:59:49;0.30;99.90
11221;DHT22;8517;53.546;10.104;2024-01-07T16:02:16;0.30;99.90
11221;DHT22;8517;53.546;10.104;2024-01-07T16:04:44;0.20;99.90
11221;DHT22;8517;53.546;10.104;2024-01-07T16:07:33;0.30;99.90
11221;DHT22;8517;53.546;10.104;2024-01-07T16:10:00;0.20;99.90
11221;DHT22;8517;53.546;10.104;2024-01-07T16:12:29;0.20;99.90
11221;DHT22;8517;53.546;10.104;2024-01-07T16:14:59;0.20;99.90
11221;DHT22;8517;53.546;10.104;2024-01-07T16:17:45;0.20;99.90
11221;DHT22;8517;53.546;10.104;2024-01-07T16:20:18;0.20;99.90
11221;DHT22;8517;53.546;10.104;2024-01-07T16:22:57;0.30;99.90
11221;DHT22;8517;53.546;10.104;2024-01-07T16:25:42;0.30;99.90
11221;DHT22;8517;53.546;10.104;2024-01-07T16:28:19;0.30;99.90
11221;DHT22;8517;53.546;10.104;2024-01-07T16:30:47;0.30;99.90